Terminal Aerodrome Forecast
Issued by NWS

Home | Current Version | Previous Version | Text Only | Print | Product List | Glossary Off
Versions: 1 2 3 4 5 6 7 8 9 10 11 12 13 14 15 16 17 18 19 20 21 22 23 24

000
FTUS43 KABR 031500 AAA
TAFATY
TAF AMD
KATY 031534Z 0316/0412 34024G30KT 2SM -SN BR BKN025
      TEMPO 0316/0318 1SM -SN BLSN
     FM031800 32020G30KT 6SM BLSN OVC015
     FM040000 32017KT P6SM BKN040=

USA.gov is the U.S. government's official web portal to all federal, state and local government web resources and services.